Latest Weather Observations for Rottnest Island

IDW60901

Issued at 6:05 am WST Tuesday 25 November 2014 (issued every 10 minutes, with the page automatically refreshed every 10 minutes)

About weather observations | Map of Perth area stations | Latest observations for Perth area | Other Formats
Station Details ID: 009193 Name: ROTTNEST ISLAND Lat: -32.01 Lon: 115.50 Height: 43.1 m
Data from the previous 72 hours. | See also: Recent months at Rottnest Island
Date/Time
WST
Tmp

°C
App
Tmp
°C
Dew
Point
°C
Rel
Hum
%
Delta-T

°C
Wind Press
QNH
hPa
Press
MSL
hPa
Rain
since
9 am
mm
Dir
 
Spd
km/h
Gust
km/h
Spd
kts
Gust
kts
25/06:00am 16.9 11.8 7.8 55 4.6 E 24 32 13 17 1018.0 1017.9 0.0
25/05:30am 16.1 11.5 8.1 59 4.0 E 22 30 12 16 1017.7 1017.6 0.0
25/05:00am 16.1 12.2 8.6 61 3.8 ESE 19 26 10 14 1017.6 1017.5 0.0
25/04:30am 16.6 12.2 9.1 61 3.9 ESE 22 30 12 16 1017.2 1017.1 0.0
25/04:00am 17.0 13.0 8.9 59 4.2 ESE 20 32 11 17 1017.2 1017.1 0.0
25/03:30am 17.1 13.3 9.0 59 4.2 ESE 19 24 10 13 1017.2 1017.1 0.0
25/03:00am 17.5 14.0 8.9 57 4.5 ESE 17 22 9 12 1017.4 1017.3 0.0
25/02:30am 18.0 13.9 8.0 52 5.1 E 19 26 10 14 1017.3 1017.2 0.0
25/02:00am 18.4 13.4 8.1 51 5.3 E 24 37 13 20 1017.3 1017.2 0.0
25/01:30am 18.5 13.5 8.2 51 5.3 ESE 24 39 13 21 1017.4 1017.3 0.0
25/01:00am 18.3 14.1 11.1 63 3.9 SE 24 33 13 18 1017.7 1017.6 0.0
25/12:30am 18.7 14.3 14.0 74 2.7 SSE 30 37 16 20 1017.7 1017.6 0.0
25/12:00am 18.7 14.2 13.8 73 2.8 SSE 30 37 16 20 1017.8 1017.7 0.0
 
Date/Time
WST
Tmp

°C
App
Tmp
°C
Dew
Point
°C
Rel
Hum
%
Delta-T

°C
Wind Press
QNH
hPa
Press
MSL
hPa
Rain
since
9 am
mm
Dir
 
Spd
km/h
Gust
km/h
Spd
kts
Gust
kts
24/11:30pm 18.5 14.2 14.4 77 2.4 SSE 30 35 16 19 1018.0 1017.9 0.0
24/11:00pm 18.6 13.6 13.5 72 2.9 S 32 39 17 21 1018.2 1018.1 0.0
24/10:30pm 18.8 13.5 14.3 75 2.6 S 35 46 19 25 1018.3 1018.2 0.0
24/10:00pm 18.8 13.1 14.3 75 2.6 S 37 46 20 25 1018.5 1018.4 0.0
24/09:30pm 19.0 12.0 13.8 72 3.0 S 43 54 23 29 1018.6 1018.5 0.0
24/09:00pm 19.0 13.0 14.3 74 2.7 S 39 52 21 28 1018.8 1018.7 0.0
24/08:30pm 19.0 12.4 14.9 77 2.4 S 43 50 23 27 1018.7 1018.6 0.0
24/08:00pm 18.7 12.3 14.2 75 2.6 S 41 50 22 27 1018.7 1018.6 0.0
24/07:30pm 18.5 11.5 13.8 74 2.7 S 43 52 23 28 1018.5 1018.4 0.0
24/07:00pm 18.2 10.9 13.3 73 2.8 S 44 56 24 30 1018.3 1018.2 0.0
24/06:30pm 18.4 11.2 13.0 71 3.0 S 43 56 23 30 1018.2 1018.1 0.0
24/06:00pm 18.7 10.9 12.9 69 3.3 S 46 56 25 30 1018.1 1018.0 0.0
24/05:30pm 18.8 10.8 12.3 66 3.6 S 46 57 25 31 1018.0 1017.9 0.0
24/05:00pm 19.2 10.2 11.5 61 4.2 S 50 57 27 31 1018.0 1017.9 0.0
24/04:30pm 19.5 11.8 11.5 60 4.4 SSW 43 56 23 30 1018.0 1017.9 0.0
24/04:00pm 19.1 11.0 10.6 58 4.6 SSW 44 54 24 29 1018.2 1018.1 0.0
24/03:30pm 20.1 12.7 11.1 56 4.9 S 41 48 22 26 1018.5 1018.4 0.0
24/03:00pm 19.7 12.1 10.4 55 5.0 SSW 41 48 22 26 1018.7 1018.6 0.0
24/02:30pm 19.8 12.5 10.2 54 5.2 SSW 39 46 21 25 1019.1 1019.0 0.0
24/02:00pm 20.3 13.7 10.1 52 5.5 SSW 35 43 19 23 1019.4 1019.3 0.0
24/01:30pm 20.5 14.4 9.7 50 5.8 S 32 39 17 21 1019.6 1019.5 0.0
24/01:00pm 19.1 13.1 8.7 51 5.4 SSW 30 39 16 21 1020.0 1019.9 0.0
24/12:30pm 19.8 14.4 8.2 47 6.0 S 26 32 14 17 1020.3 1020.2 0.0
24/12:00pm 20.9 15.9 7.9 43 6.7 S 24 30 13 16 1020.6 1020.5 0.0
24/11:30am 19.7 15.0 7.8 46 6.1 S 22 28 12 15 1021.0 1020.9 0.0
24/11:00am 19.9 15.5 7.3 44 6.4 SSE 20 26 11 14 1021.3 1021.2 0.0
24/10:30am 18.5 13.6 7.0 47 5.8 SSE 22 26 12 14 1021.6 1021.5 0.0
24/10:00am 18.0 13.3 6.2 46 5.8 S 20 24 11 13 1021.8 1021.7 0.0
24/09:30am 17.2 12.6 5.8 47 5.5 SE 19 30 10 16 1022.0 1021.9 0.0
24/09:00am 16.8 12.1 6.0 49 5.2 SE 20 30 11 16 1022.2 1022.1 0.0
24/08:30am 16.7 12.1 6.5 51 5.0 SE 20 30 11 16 1022.3 1022.2 0.0
24/08:00am 15.8 11.3 6.0 52 4.7 ESE 19 28 10 15 1022.5 1022.4 0.0
24/07:30am 15.7 11.0 6.2 53 4.6 ESE 20 32 11 17 1022.4 1022.3 0.0
24/07:00am 14.8 9.7 6.1 56 4.2 ESE 22 32 12 17 1022.3 1022.2 0.0
24/06:30am 14.3 8.4 5.9 57 4.0 E 26 35 14 19 1022.2 1022.1 0.0
24/06:00am 13.6 8.4 5.5 58 3.8 ESE 22 35 12 19 1022.1 1022.0 0.0
24/05:30am 13.0 7.0 5.2 59 3.6 SE 26 35 14 19 1021.9 1021.8 0.0
24/05:00am 13.1 6.4 5.8 61 3.4 SE 30 37 16 20 1021.6 1021.5 0.0
24/04:30am 13.3 7.1 6.2 62 3.4 SE 28 39 15 21 1021.3 1021.2 0.0
24/04:00am 13.3 7.6 6.9 65 3.1 SE 26 37 14 20 1021.2 1021.1 0.0
24/03:30am 13.3 6.3 6.2 62 3.4 SE 32 41 17 22 1020.9 1020.8 0.0
24/03:00am 13.6 6.7 6.5 62 3.4 SE 32 39 17 21 1020.9 1020.8 0.0
24/02:30am 13.8 6.7 6.4 61 3.6 SE 33 44 18 24 1020.7 1020.6 0.0
24/02:00am 14.1 6.3 6.5 60 3.7 SE 37 48 20 26 1020.5 1020.4 0.0
24/01:30am 14.3 6.9 6.6 60 3.7 SSE 35 50 19 27 1020.4 1020.3 0.0
24/01:00am 14.8 6.5 7.6 62 3.6 SSE 41 54 22 29 1020.3 1020.2 0.0
24/12:30am 14.9 4.8 7.5 61 3.7 SSE 50 57 27 31 1020.0 1019.9 0.0
24/12:00am 15.3 6.1 8.1 62 3.6 SSE 46 57 25 31 1020.1 1020.0 0.0
 
Date/Time
WST
Tmp

°C
App
Tmp
°C
Dew
Point
°C
Rel
Hum
%
Delta-T

°C
Wind Press
QNH
hPa
Press
MSL
hPa
Rain
since
9 am
mm
Dir
 
Spd
km/h
Gust
km/h
Spd
kts
Gust
kts
23/11:30pm 15.6 6.0 8.1 61 3.8 S 48 59 26 32 1019.8 1019.7 0.0
23/11:00pm 16.0 6.4 8.0 59 4.0 S 48 59 26 32 1019.9 1019.8 0.0
23/10:30pm 16.4 7.3 9.8 65 3.5 S 48 61 26 33 1019.8 1019.7 0.0
23/10:00pm 16.8 8.0 9.7 63 3.7 S 46 57 25 31 1019.6 1019.5 0.0
23/09:30pm 17.1 9.0 10.0 63 3.8 S 43 56 23 30 1019.6 1019.5 0.0
23/09:00pm 17.0 9.0 10.6 66 3.4 S 43 52 23 28 1019.6 1019.5 0.0
23/08:30pm 17.1 9.2 10.7 66 3.4 S 43 50 23 27 1019.2 1019.1 0.0
23/08:00pm 17.0 8.9 9.9 63 3.7 S 43 54 23 29 1018.7 1018.6 0.0
23/07:30pm 16.9 9.7 10.5 66 3.4 S 39 50 21 27 1018.7 1018.6 0.0
23/07:00pm 16.9 9.8 9.6 62 3.8 S 37 44 20 24 1018.5 1018.4 0.0
23/06:30pm 17.2 9.9 8.9 58 4.3 S 37 46 20 25 1018.4 1018.3 0.0
23/06:00pm 17.5 10.6 8.9 57 4.4 S 35 43 19 23 1018.2 1018.1 0.0
23/05:30pm 18.2 11.4 9.3 56 4.7 S 35 43 19 23 1017.8 1017.7 0.0
23/05:00pm 18.3 10.7 9.1 55 4.8 S 39 48 21 26 1017.5 1017.4 0.0
23/04:30pm 18.8 12.3 9.0 53 5.1 SSW 33 41 18 22 1017.4 1017.3 0.0
23/04:00pm 18.9 11.6 8.8 52 5.3 S 37 46 20 25 1017.2 1017.1 0.0
23/03:30pm 18.7 11.5 9.2 54 5.0 S 37 44 20 24 1017.3 1017.2 0.0
23/03:00pm 19.4 12.2 9.3 52 5.3 S 37 46 20 25 1017.3 1017.2 0.0
23/02:30pm 19.3 12.3 9.8 54 5.1 S 37 46 20 25 1017.4 1017.3 0.0
23/02:00pm 19.9 13.4 10.3 54 5.2 S 35 44 19 24 1017.4 1017.3 0.0
23/01:30pm 20.5 14.4 10.6 53 5.4 S 33 41 18 22 1017.5 1017.4 0.0
23/01:00pm 20.0 14.1 11.0 56 4.9 S 33 43 18 23 1017.5 1017.4 0.0
23/12:30pm 20.7 14.6 10.5 52 5.6 S 33 41 18 22 1017.6 1017.5 0.0
23/12:00pm 20.1 14.0 9.7 51 5.6 SSW 32 39 17 21 1017.8 1017.7 0.0
23/11:30am 19.5 13.6 10.5 56 4.9 S 32 37 17 20 1017.9 1017.8 0.0
23/11:00am 19.8 14.4 12.3 62 4.2 S 32 37 17 20 1017.8 1017.7 0.0
23/10:33am 18.4 11.6 11.9 66 3.6 S 39 44 21 24 1017.6 1017.5 0.0
23/10:30am 19.7 13.9 10.9 57 4.8 SSW 32 39 17 21 1017.9 1017.8 0.0
23/10:00am 20.4 14.3 9.9 51 5.6 SSW 32 43 17 23 1017.8 1017.7 0.0
23/09:30am 19.8 12.5 8.8 49 5.8 SSW 37 46 20 25 1017.6 1017.5 0.0
23/09:00am 19.9 12.8 7.9 46 6.2 SSW 35 43 19 23 1017.5 1017.4 0.0
23/08:30am 19.9 12.9 8.6 48 5.9 SSW 35 44 19 24 1017.4 1017.3 0.0
23/08:00am 18.2 12.4 10.8 62 4.0 SSW 32 39 17 21 1017.4 1017.3 0.0
23/07:30am 18.0 12.0 10.9 63 3.8 S 33 43 18 23 1017.1 1017.0 0.0
23/07:00am 17.6 10.6 10.0 61 4.0 SSW 37 46 20 25 1016.6 1016.5 0.0
23/06:30am 17.9 11.4 8.2 53 5.0 SSW 32 41 17 22 1016.2 1016.1 0.0
23/06:00am 17.6 12.2 9.5 59 4.2 SW 28 39 15 21 1015.9 1015.8 0.0
23/05:30am 17.6 11.9 9.8 60 4.1 SSW 30 39 16 21 1015.6 1015.5 0.0
23/05:00am 17.3 10.4 6.5 49 5.3 SSW 32 37 17 20 1015.2 1015.1 0.0
23/04:30am 17.2 10.8 9.4 60 4.1 SSW 33 43 18 23 1015.0 1014.9 0.0
23/04:00am 17.2 11.1 9.9 62 3.8 SSW 32 44 17 24 1014.9 1014.8 0.0
23/03:30am 17.1 10.3 6.9 51 5.1 SSW 32 43 17 23 1014.7 1014.6 0.0
23/03:00am 17.2 10.2 8.4 56 4.5 SSW 35 43 19 23 1014.8 1014.7 0.0
23/02:30am 17.2 11.8 9.6 61 4.0 SSW 28 39 15 21 1014.8 1014.7 0.0
23/02:00am 17.1 10.5 7.7 54 4.7 SSW 32 43 17 23 1014.8 1014.7 0.0
23/01:30am 17.1 10.9 8.0 55 4.6 SW 30 37 16 20 1014.9 1014.8 0.0
23/01:00am 17.2 10.2 8.4 56 4.5 SSW 35 44 19 24 1014.9 1014.8 0.0
23/12:30am 17.3 10.9 8.7 57 4.4 SW 32 39 17 21 1015.0 1014.9 0.0
23/12:00am 17.5 11.4 9.9 61 4.0 SSW 32 41 17 22 1015.2 1015.1 0.0
 
Date/Time
WST
Tmp

°C
App
Tmp
°C
Dew
Point
°C
Rel
Hum
%
Delta-T

°C
Wind Press
QNH
hPa
Press
MSL
hPa
Rain
since
9 am
mm
Dir
 
Spd
km/h
Gust
km/h
Spd
kts
Gust
kts
22/11:30pm 17.6 12.2 9.5 59 4.3 SW 28 35 15 19 1015.2 1015.1 0.0
22/11:00pm 17.5 13.0 10.1 62 3.9 SW 24 32 13 17 1015.5 1015.4 0.0
22/10:30pm 17.4 11.8 10.3 63 3.8 SW 30 37 16 20 1015.6 1015.5 0.0
22/10:00pm 17.2 12.2 10.8 66 3.4 SW 28 35 15 19 1015.8 1015.7 0.0
22/09:30pm 17.5 12.4 11.8 69 3.1 SW 30 35 16 19 1015.7 1015.6 0.0
22/09:00pm 17.4 13.6 12.3 72 2.8 SSW 24 32 13 17 1015.6 1015.5 0.0
22/08:30pm 17.0 12.4 12.3 74 2.6 SSW 28 33 15 18 1015.4 1015.3 0.0
22/08:00pm 17.1 13.4 11.6 70 3.0 SW 22 28 12 15 1015.4 1015.3 0.0
22/07:30pm 17.0 12.9 11.5 70 3.0 SW 24 30 13 16 1015.2 1015.1 0.0
22/07:00pm 17.3 12.9 11.6 69 3.1 SW 26 33 14 18 1015.1 1015.0 0.0
22/06:30pm 17.9 12.9 10.8 63 3.8 SW 28 35 15 19 1014.9 1014.8 0.0
22/06:00pm 18.4 13.4 11.0 62 4.0 SW 28 35 15 19 1014.7 1014.6 0.0
22/05:30pm 19.1 14.9 12.4 65 3.7 SW 26 33 14 18 1014.7 1014.6 0.0
22/05:00pm 19.5 14.7 11.5 60 4.4 SW 28 35 15 19 1014.5 1014.4 0.0
22/04:30pm 19.4 14.4 12.2 63 4.0 SW 30 37 16 20 1014.6 1014.5 0.0
22/04:00pm 20.8 16.0 11.7 56 5.1 SW 28 33 15 18 1014.7 1014.6 0.0
22/03:30pm 20.4 15.2 10.2 52 5.5 SW 28 35 15 19 1014.5 1014.4 0.0
22/03:00pm 19.8 14.5 10.0 53 5.3 SW 28 35 15 19 1014.5 1014.4 0.0
22/02:30pm 20.5 15.8 9.4 49 5.9 WSW 24 30 13 16 1014.7 1014.6 0.0
22/02:00pm 20.8 16.1 9.1 47 6.2 SW 24 33 13 18 1014.7 1014.6 0.0
22/01:30pm 19.2 14.6 9.7 54 5.1 SW 24 37 13 20 1014.9 1014.8 0.0
22/01:00pm 19.6 15.3 9.5 52 5.4 SW 22 30 12 16 1014.7 1014.6 0.0
22/12:30pm 20.6 16.2 10.4 52 5.5 SW 24 33 13 18 1014.7 1014.6 0.0
22/12:00pm 19.0 14.9 10.0 56 4.8 SSW 22 30 12 16 1014.8 1014.7 0.0
22/11:30am 20.3 16.1 11.0 55 5.1 SSW 24 30 13 16 1014.6 1014.5 0.0
22/11:00am 19.9 15.6 10.9 56 4.9 SW 24 32 13 17 1014.6 1014.5 0.0
22/10:30am 20.7 16.0 10.5 52 5.6 S 26 32 14 17 1014.6 1014.5 0.0
22/10:00am 19.2 13.8 11.0 59 4.5 SSW 30 35 16 19 1014.5 1014.4 0.0
22/09:30am 19.3 14.6 10.6 57 4.7 SSW 26 32 14 17 1014.4 1014.3 0.0
22/09:00am 19.3 14.9 10.3 56 4.8 SSW 24 32 13 17 1014.4 1014.3 0.0
22/08:30am 18.7 13.7 10.8 60 4.3 SSW 28 33 15 18 1014.2 1014.1 0.0
22/08:00am 18.0 14.2 11.3 65 3.6 SSW 22 30 12 16 1014.1 1014.0 0.0
22/07:30am 18.1 13.7 11.7 66 3.5 SSW 26 35 14 19 1013.8 1013.7 0.0
22/07:00am 17.4 13.9 12.1 71 2.9 S 22 28 12 15 1013.7 1013.6 0.0
22/06:30am 16.8 11.7 11.9 73 2.7 S 30 37 16 20 1013.3 1013.2 0.0

Latest Capital City Observations: Canberra | Sydney | Melbourne | Brisbane | Adelaide | Perth | Hobart | Darwin

Other Formats:

Comma delimited format used in spreadsheet applications
http://www.bom.gov.au/fwo/IDW60901/IDW60901.94602.axf

JavaScript Object Notation format (JSON) in row-major order
http://www.bom.gov.au/fwo/IDW60901/IDW60901.94602.json